N42J KSAN-KLAS
Flight info
| Callsign | N42J |
|---|---|
| Flight time | N/A |
| Altitude | VFR/095 |
| Route | N |
| Aircraft | PC12/L-VGDW/C |
Departure
| Time | 2026-05-04 20:15 |
|---|---|
| Airport | San Diego International Airport (KSAN) |
Arrival
| Time | N/A |
|---|---|
| Airport | Harry Reid International Airport (KLAS) |
| Time | Latitude | Longitude | Altitude | Speed | Heading |
|---|---|---|---|---|---|
| 2026-05-04 20:13 | 32.73095 | -117.17555 | 26 ft | 0 kts | 144° |
| 2026-05-04 20:13 | 32.73067 | -117.17532 | 25 ft | 11 kts | 145° |
| 2026-05-04 20:14 | 32.73023 | -117.17593 | 25 ft | 15 kts | 284° |
| 2026-05-04 20:14 | 32.73037 | -117.17657 | 25 ft | 31 kts | 282° |
| 2026-05-04 20:14 | 32.73171 | -117.18219 | 19 ft | 102 kts | 284° |
| 2026-05-04 20:14 | 32.73397 | -117.19109 | 251 ft | 124 kts | 283° |
| 2026-05-04 20:15 | 32.73631 | -117.20158 | 600 ft | 140 kts | 281° |
| 2026-05-04 20:15 | 32.74048 | -117.21276 | 942 ft | 157 kts | 297° |
| 2026-05-04 20:15 | 32.74651 | -117.22422 | 1288 ft | 169 kts | 299° |
| 2026-05-04 20:15 | 32.75304 | -117.23644 | 1640 ft | 180 kts | 300° |
| 2026-05-04 20:16 | 32.75990 | -117.24927 | 1984 ft | 188 kts | 300° |
| 2026-05-04 20:16 | 32.76698 | -117.26262 | 2322 ft | 194 kts | 302° |
| 2026-05-04 20:16 | 32.77752 | -117.27254 | 2596 ft | 204 kts | 340° |
| 2026-05-04 20:16 | 32.79202 | -117.27286 | 2914 ft | 212 kts | 4° |
| 2026-05-04 20:17 | 32.80608 | -117.26723 | 3198 ft | 220 kts | 35° |
| 2026-05-04 20:17 | 32.81570 | -117.25307 | 3518 ft | 224 kts | 53° |
| 2026-05-04 20:17 | 32.82401 | -117.23733 | 3849 ft | 224 kts | 55° |
| 2026-05-04 20:17 | 32.83209 | -117.22161 | 4184 ft | 225 kts | 56° |
| 2026-05-04 20:18 | 32.84023 | -117.20570 | 4520 ft | 225 kts | 55° |
| 2026-05-04 20:18 | 32.84834 | -117.18981 | 4852 ft | 225 kts | 55° |
| 2026-05-04 20:18 | 32.85639 | -117.17403 | 5189 ft | 226 kts | 55° |
| 2026-05-04 20:18 | 32.86459 | -117.15791 | 5527 ft | 227 kts | 55° |
| 2026-05-04 20:19 | 32.87266 | -117.14198 | 5865 ft | 227 kts | 55° |
| 2026-05-04 20:19 | 32.88090 | -117.12576 | 6207 ft | 228 kts | 55° |
| 2026-05-04 20:19 | 32.88900 | -117.10977 | 6540 ft | 229 kts | 55° |
| 2026-05-04 20:19 | 32.89724 | -117.09350 | 6878 ft | 230 kts | 56° |
| 2026-05-04 20:20 | 32.90542 | -117.07726 | 7214 ft | 231 kts | 55° |
| 2026-05-04 20:20 | 32.91380 | -117.06064 | 7556 ft | 233 kts | 56° |
| 2026-05-04 20:20 | 32.92216 | -117.04398 | 7873 ft | 236 kts | 56° |
| 2026-05-04 20:20 | 32.93073 | -117.02694 | 7947 ft | 249 kts | 56° |
| 2026-05-04 20:21 | 32.93981 | -117.00873 | 7959 ft | 262 kts | 57° |
| 2026-05-04 20:21 | 32.94925 | -116.98971 | 7977 ft | 271 kts | 57° |
| 2026-05-04 20:21 | 32.96893 | -116.94992 | 7985 ft | 285 kts | 57° |
| 2026-05-04 20:22 | 32.97897 | -116.92954 | 7978 ft | 290 kts | 57° |
| 2026-05-04 20:22 | 32.98918 | -116.90871 | 7973 ft | 293 kts | 57° |
| 2026-05-04 20:22 | 32.99947 | -116.88764 | 7980 ft | 295 kts | 58° |
| 2026-05-04 20:22 | 33.00995 | -116.86613 | 7989 ft | 297 kts | 58° |
| 2026-05-04 20:23 | 33.02023 | -116.84497 | 7982 ft | 298 kts | 58° |
| 2026-05-04 20:23 | 33.03056 | -116.82352 | 7980 ft | 299 kts | 58° |
| 2026-05-04 20:23 | 33.04093 | -116.80200 | 7981 ft | 300 kts | 58° |
| 2026-05-04 20:23 | 33.05121 | -116.78054 | 7976 ft | 300 kts | 58° |
| 2026-05-04 20:24 | 33.06150 | -116.75893 | 7966 ft | 300 kts | 59° |
| 2026-05-04 20:24 | 33.07391 | -116.73937 | 7992 ft | 296 kts | 38° |
| 2026-05-04 20:24 | 33.08929 | -116.72303 | 7989 ft | 296 kts | 39° |
| 2026-05-04 20:24 | 33.10485 | -116.70667 | 7972 ft | 296 kts | 38° |
| 2026-05-04 20:25 | 33.12035 | -116.69051 | 7952 ft | 297 kts | 38° |
| 2026-05-04 20:25 | 33.13605 | -116.67419 | 7946 ft | 297 kts | 38° |
| 2026-05-04 20:25 | 33.15151 | -116.65817 | 7935 ft | 297 kts | 38° |
| 2026-05-04 20:25 | 33.16723 | -116.64188 | 7932 ft | 297 kts | 38° |
| 2026-05-04 20:26 | 33.18258 | -116.62595 | 7938 ft | 297 kts | 38° |
| 2026-05-04 20:26 | 33.19842 | -116.60952 | 7937 ft | 296 kts | 38° |
| 2026-05-04 20:26 | 33.21559 | -116.59615 | 7956 ft | 290 kts | 13° |
| 2026-05-04 20:26 | 33.23489 | -116.58974 | 7915 ft | 292 kts | 20° |
| 2026-05-04 20:27 | 33.25325 | -116.57960 | 7931 ft | 291 kts | 21° |
| 2026-05-04 20:27 | 33.27155 | -116.56908 | 7944 ft | 292 kts | 22° |
| 2026-05-04 20:27 | 33.28973 | -116.55809 | 7912 ft | 293 kts | 28° |
| 2026-05-04 20:27 | 33.30368 | -116.54016 | 7878 ft | 298 kts | 59° |
| 2026-05-04 20:28 | 33.31255 | -116.51810 | 7901 ft | 298 kts | 65° |
| 2026-05-04 20:28 | 33.32063 | -116.49551 | 7915 ft | 287 kts | 66° |
| 2026-05-04 20:28 | 33.32820 | -116.47395 | 7913 ft | 276 kts | 66° |
| 2026-05-04 20:28 | 33.33543 | -116.45309 | 7917 ft | 266 kts | 66° |
| 2026-05-04 20:29 | 33.34219 | -116.43327 | 7910 ft | 254 kts | 67° |
| 2026-05-04 20:29 | 33.34862 | -116.41397 | 7907 ft | 241 kts | 67° |
| 2026-05-04 20:29 | 33.35522 | -116.39619 | 7895 ft | 229 kts | 51° |
| 2026-05-04 20:29 | 33.36724 | -116.38539 | 7952 ft | 213 kts | 27° |
| 2026-05-04 20:30 | 33.37977 | -116.37624 | 7914 ft | 207 kts | 29° |
| 2026-05-04 20:30 | 33.39153 | -116.36694 | 7906 ft | 200 kts | 30° |
| 2026-05-04 20:30 | 33.40281 | -116.35755 | 7908 ft | 195 kts | 31° |
| 2026-05-04 20:30 | 33.41375 | -116.34822 | 7891 ft | 190 kts | 32° |
| 2026-05-04 20:31 | 33.42403 | -116.33929 | 8095 ft | 168 kts | 32° |
| 2026-05-04 20:31 | 33.43361 | -116.33099 | 7867 ft | 178 kts | 33° |
| 2026-05-04 20:31 | 33.44366 | -116.32222 | 7695 ft | 181 kts | 33° |
| 2026-05-04 20:31 | 33.45394 | -116.31325 | 7510 ft | 184 kts | 33° |
| 2026-05-04 20:32 | 33.46436 | -116.30414 | 7280 ft | 187 kts | 32° |
| 2026-05-04 20:32 | 33.47480 | -116.29500 | 7072 ft | 188 kts | 33° |
| 2026-05-04 20:32 | 33.48534 | -116.28577 | 6872 ft | 187 kts | 34° |
| 2026-05-04 20:32 | 33.49597 | -116.27645 | 6678 ft | 187 kts | 34° |
| 2026-05-04 20:33 | 33.50640 | -116.26730 | 6478 ft | 187 kts | 34° |
| 2026-05-04 20:33 | 33.51688 | -116.25810 | 6268 ft | 186 kts | 34° |
| 2026-05-04 20:33 | 33.52735 | -116.24892 | 6067 ft | 186 kts | 34° |
| 2026-05-04 20:33 | 33.53780 | -116.23976 | 5861 ft | 185 kts | 33° |
| 2026-05-04 20:34 | 33.54816 | -116.23068 | 5656 ft | 185 kts | 33° |
| 2026-05-04 20:34 | 33.55852 | -116.22160 | 5456 ft | 183 kts | 34° |
| 2026-05-04 20:34 | 33.56853 | -116.21273 | 5245 ft | 176 kts | 34° |
| 2026-05-04 20:34 | 33.57822 | -116.20422 | 5044 ft | 169 kts | 34° |
| 2026-05-04 20:35 | 33.58761 | -116.19597 | 4841 ft | 164 kts | 34° |
| 2026-05-04 20:35 | 33.59675 | -116.18793 | 4641 ft | 161 kts | 34° |
| 2026-05-04 20:35 | 33.60562 | -116.18014 | 4495 ft | 154 kts | 34° |
| 2026-05-04 20:35 | 33.61412 | -116.17271 | 4466 ft | 148 kts | 33° |
| 2026-05-04 20:36 | 33.62331 | -116.16898 | 4470 ft | 135 kts | 349° |
| 2026-05-04 20:36 | 33.63135 | -116.17384 | 4400 ft | 131 kts | 309° |
| 2026-05-04 20:36 | 33.63696 | -116.18278 | 4228 ft | 139 kts | 300° |
| 2026-05-04 20:36 | 33.64237 | -116.19277 | 4038 ft | 146 kts | 298° |
| 2026-05-04 20:37 | 33.64776 | -116.20331 | 3846 ft | 151 kts | 297° |
| 2026-05-04 20:37 | 33.65320 | -116.21428 | 3654 ft | 155 kts | 298° |
| 2026-05-04 20:37 | 33.65870 | -116.22562 | 3459 ft | 158 kts | 297° |
| 2026-05-04 20:37 | 33.66420 | -116.23707 | 3262 ft | 159 kts | 297° |
| 2026-05-04 20:38 | 33.66973 | -116.24869 | 3058 ft | 159 kts | 297° |
| 2026-05-04 20:38 | 33.67509 | -116.26000 | 2969 ft | 153 kts | 297° |
| 2026-05-04 20:38 | 33.68024 | -116.27089 | 2959 ft | 145 kts | 297° |
| 2026-05-04 20:38 | 33.68505 | -116.28107 | 2961 ft | 138 kts | 297° |
| 2026-05-04 20:39 | 33.68965 | -116.29083 | 2958 ft | 131 kts | 295° |
| 2026-05-04 20:39 | 33.69406 | -116.30019 | 2960 ft | 126 kts | 296° |
| 2026-05-04 20:39 | 33.69831 | -116.30922 | 2964 ft | 121 kts | 296° |
| 2026-05-04 20:39 | 33.70231 | -116.31784 | 2972 ft | 115 kts | 295° |
| 2026-05-04 20:40 | 33.70604 | -116.32619 | 3018 ft | 115 kts | 294° |
| 2026-05-04 20:40 | 33.71002 | -116.33502 | 2991 ft | 122 kts | 295° |
| 2026-05-04 20:40 | 33.71408 | -116.34390 | 2990 ft | 121 kts | 295° |
| 2026-05-04 20:40 | 33.71819 | -116.35292 | 2988 ft | 122 kts | 295° |
| 2026-05-04 20:41 | 33.72227 | -116.36186 | 2988 ft | 122 kts | 295° |
| 2026-05-04 20:41 | 33.72630 | -116.37073 | 2981 ft | 122 kts | 295° |
| 2026-05-04 20:41 | 33.73042 | -116.37977 | 2982 ft | 121 kts | 295° |
| 2026-05-04 20:41 | 33.73443 | -116.38860 | 2983 ft | 121 kts | 295° |
| 2026-05-04 20:42 | 33.73857 | -116.39752 | 2978 ft | 122 kts | 300° |
| 2026-05-04 20:42 | 33.74415 | -116.40529 | 2897 ft | 128 kts | 309° |
| 2026-05-04 20:42 | 33.75044 | -116.41322 | 2732 ft | 133 kts | 310° |
| 2026-05-04 20:42 | 33.75664 | -116.42100 | 2550 ft | 126 kts | 310° |
| 2026-05-04 20:43 | 33.76250 | -116.42841 | 2365 ft | 120 kts | 311° |
| 2026-05-04 20:43 | 33.76816 | -116.43558 | 2185 ft | 116 kts | 311° |
| 2026-05-04 20:43 | 33.77372 | -116.44263 | 2015 ft | 114 kts | 311° |
| 2026-05-04 20:43 | 33.77905 | -116.44926 | 1757 ft | 104 kts | 313° |
| 2026-05-04 20:44 | 33.78379 | -116.45518 | 1491 ft | 93 kts | 314° |
| 2026-05-04 20:44 | 33.78810 | -116.46059 | 1204 ft | 90 kts | 313° |
| 2026-05-04 20:44 | 33.79160 | -116.46718 | 1020 ft | 96 kts | 298° |
| 2026-05-04 20:44 | 33.79514 | -116.47383 | 941 ft | 91 kts | 314° |
| 2026-05-04 20:45 | 33.79944 | -116.47941 | 838 ft | 91 kts | 314° |
| 2026-05-04 20:45 | 33.80422 | -116.48453 | 773 ft | 90 kts | 319° |
| 2026-05-04 20:45 | 33.80909 | -116.48924 | 698 ft | 91 kts | 320° |
| 2026-05-04 20:45 | 33.81418 | -116.49389 | 611 ft | 90 kts | 322° |
| 2026-05-04 20:46 | 33.81927 | -116.49842 | 504 ft | 92 kts | 321° |
| 2026-05-04 20:46 | 33.82428 | -116.50290 | 445 ft | 84 kts | 329° |
| 2026-05-04 20:46 | 33.82783 | -116.50604 | 452 ft | 41 kts | 325° |
| 2026-05-04 20:46 | 33.82928 | -116.50714 | 456 ft | 12 kts | 344° |
| 2026-05-04 20:47 | 33.82979 | -116.50720 | 457 ft | 0 kts | 2° |